createdAt,value
2022-09-22T00:02:14.147Z,55.92
2022-09-22T00:07:15.923Z,56.03
2022-09-22T00:12:17.705Z,56.13
2022-09-22T00:17:19.456Z,56.20
2022-09-22T00:22:21.210Z,55.94
2022-09-22T00:27:24.291Z,55.77
2022-09-22T00:32:26.139Z,55.55
2022-09-22T00:37:28.241Z,55.84
2022-09-22T00:42:30.016Z,55.68
2022-09-22T00:47:39.724Z,56.15
2022-09-22T00:52:52.472Z,55.96
2022-09-22T00:57:55.801Z,56.18
2022-09-22T01:03:00.837Z,55.96
2022-09-22T01:08:03.380Z,56.02
2022-09-22T01:13:42.766Z,56.25
2022-09-22T01:18:56.958Z,55.83
2022-09-22T01:24:40.116Z,55.63
2022-09-22T01:29:56.331Z,55.58
2022-09-22T01:35:03.879Z,55.71
2022-09-22T01:40:12.904Z,57.00
2022-09-22T01:45:20.576Z,56.51
2022-09-22T01:50:27.445Z,56.18
2022-09-22T01:55:34.967Z,56.02
2022-09-22T02:00:40.509Z,56.06
2022-09-22T02:05:56.523Z,56.31
2022-09-22T02:11:04.346Z,56.18
2022-09-22T02:16:07.825Z,56.13
2022-09-22T02:21:10.994Z,56.20
2022-09-22T02:26:18.426Z,56.29
2022-09-22T02:31:23.670Z,55.97
2022-09-22T02:36:32.851Z,56.06
2022-09-22T02:42:05.687Z,56.15
2022-09-22T02:47:15.412Z,55.87
2022-09-22T02:52:19.834Z,55.82
2022-09-22T02:57:22.021Z,55.81
2022-09-22T03:02:23.914Z,55.66
2022-09-22T03:07:25.790Z,55.48
2022-09-22T03:12:27.640Z,55.35
2022-09-22T03:17:32.191Z,55.10
2022-09-22T03:22:34.198Z,55.28
2022-09-22T03:27:36.543Z,55.34
2022-09-22T03:32:38.888Z,55.21
2022-09-22T03:37:40.888Z,55.53
2022-09-22T03:42:42.749Z,55.89
2022-09-22T03:47:44.719Z,55.97
2022-09-22T03:52:46.642Z,55.70
2022-09-22T03:57:48.609Z,55.38
2022-09-22T04:02:50.471Z,56.07
2022-09-22T04:07:53.096Z,56.67
2022-09-22T04:12:54.943Z,57.03
2022-09-22T04:17:57.547Z,57.09
2022-09-22T04:22:59.526Z,56.81
2022-09-22T04:28:05.401Z,56.65
2022-09-22T04:33:07.563Z,56.49
2022-09-22T04:38:10.696Z,56.09
2022-09-22T04:43:12.806Z,56.19
2022-09-22T04:48:17.504Z,56.85
2022-09-22T04:53:19.645Z,56.44
2022-09-22T04:58:21.417Z,56.29
2022-09-22T05:03:23.248Z,56.62
2022-09-22T05:08:25.300Z,57.03
2022-09-22T05:13:27.130Z,57.34
2022-09-22T05:18:28.940Z,56.76
2022-09-22T05:23:32.184Z,56.28
2022-09-22T05:28:34.061Z,56.36
2022-09-22T05:33:35.931Z,56.89
2022-09-22T05:38:37.728Z,57.12
2022-09-22T05:43:39.571Z,56.93
2022-09-22T05:48:41.387Z,57.01
2022-09-22T05:53:43.272Z,56.88
2022-09-22T05:58:47.301Z,56.99
2022-09-22T06:03:49.097Z,56.93
2022-09-22T06:08:51.152Z,56.69
2022-09-22T06:13:53.247Z,56.50
2022-09-22T06:18:55.083Z,56.25
2022-09-22T06:23:57.828Z,56.42
2022-09-22T06:28:59.732Z,56.20
2022-09-22T06:34:04.324Z,56.09
2022-09-22T06:39:10.641Z,55.98
2022-09-22T06:44:12.780Z,55.67
2022-09-22T06:49:14.697Z,55.11
2022-09-22T06:54:16.674Z,55.18
2022-09-22T06:59:18.564Z,54.61
2022-09-22T07:04:22.491Z,54.13
2022-09-22T07:09:24.465Z,54.09
2022-09-22T07:14:26.717Z,53.49
2022-09-22T07:19:28.528Z,52.81
2022-09-22T07:24:30.312Z,52.93
2022-09-22T07:29:32.292Z,52.58
2022-09-22T07:34:34.125Z,52.12
2022-09-22T07:39:35.981Z,52.19
2022-09-22T07:44:56.486Z,51.84
2022-09-22T07:49:58.285Z,51.54
2022-09-22T07:55:00.110Z,50.71
2022-09-22T08:00:02.349Z,50.76
2022-09-22T08:05:15.456Z,50.45
2022-09-22T08:10:18.644Z,50.11
2022-09-22T08:15:26.964Z,49.54
2022-09-22T08:20:30.102Z,49.17
2022-09-22T08:25:31.939Z,49.29
2022-09-22T08:30:35.330Z,49.10
2022-09-22T08:35:37.511Z,49.33
2022-09-22T08:40:43.422Z,49.35
2022-09-22T08:45:46.316Z,49.31
2022-09-22T08:51:23.841Z,49.07
2022-09-22T08:56:33.525Z,48.92
2022-09-22T09:02:02.462Z,48.87
2022-09-22T09:07:29.301Z,48.83
2022-09-22T09:12:49.811Z,48.56
2022-09-22T09:17:56.709Z,48.78
2022-09-22T09:23:00.077Z,48.93
2022-09-22T09:28:07.202Z,48.61
2022-09-22T09:33:24.070Z,48.26
2022-09-22T09:38:35.534Z,48.00
2022-09-22T09:43:42.847Z,47.90
2022-09-22T09:49:19.301Z,47.56
2022-09-22T09:54:21.735Z,47.24
2022-09-22T09:59:46.401Z,46.75
2022-09-22T10:05:17.299Z,46.76
2022-09-22T10:10:39.153Z,46.85
2022-09-22T10:15:43.511Z,46.54
2022-09-22T10:20:45.404Z,46.21
2022-09-22T10:25:48.415Z,45.60
2022-09-22T10:31:03.698Z,45.19
2022-09-22T10:36:12.170Z,44.63
2022-09-22T10:41:24.261Z,44.17
2022-09-22T10:46:38.751Z,43.96
2022-09-22T10:52:00.931Z,43.74
2022-09-22T10:57:10.301Z,43.19
2022-09-22T11:02:50.450Z,42.58
2022-09-22T11:08:25.749Z,42.12
2022-09-22T11:13:57.584Z,41.98
2022-09-22T11:19:27.284Z,42.10
2022-09-22T11:24:51.284Z,41.65
2022-09-22T11:30:11.314Z,41.46
2022-09-22T11:35:16.730Z,41.18
2022-09-22T11:40:39.942Z,41.29
2022-09-22T11:45:41.915Z,41.42
2022-09-22T11:51:26.709Z,41.38
2022-09-22T11:56:49.413Z,41.50
2022-09-22T12:01:53.645Z,41.38
2022-09-22T12:06:58.116Z,41.38
2022-09-22T12:12:03.195Z,40.71
2022-09-22T12:17:19.987Z,40.06
2022-09-22T12:22:53.917Z,39.79
2022-09-22T12:27:58.701Z,39.46
2022-09-22T12:33:00.757Z,39.54
2022-09-22T12:38:02.995Z,39.77
2022-09-22T12:43:06.114Z,39.46
2022-09-22T12:48:23.192Z,38.93
2022-09-22T12:53:29.214Z,38.77
2022-09-22T12:58:31.052Z,38.44
2022-09-22T13:03:32.802Z,37.95
2022-09-22T13:08:35.202Z,37.76
2022-09-22T13:13:39.945Z,37.89
2022-09-22T13:18:57.211Z,38.24
2022-09-22T13:24:01.675Z,38.21
2022-09-22T13:29:20.725Z,38.52
2022-09-22T13:34:31.228Z,37.91
2022-09-22T13:39:35.308Z,38.84
2022-09-22T13:44:40.190Z,38.36
2022-09-22T13:49:55.052Z,38.02
2022-09-22T13:55:09.210Z,38.09
2022-09-22T14:01:08.634Z,37.83
2022-09-22T14:06:09.588Z,37.50
2022-09-22T14:11:20.938Z,37.27
2022-09-22T14:16:30.622Z,37.13
2022-09-22T14:21:40.727Z,37.04
2022-09-22T14:26:58.983Z,36.80
2022-09-22T14:32:38.816Z,36.77
2022-09-22T14:37:45.521Z,36.63
2022-09-22T14:43:10.171Z,36.22
2022-09-22T14:48:11.980Z,36.21
2022-09-22T14:53:33.958Z,36.36
2022-09-22T14:58:43.632Z,36.78
2022-09-22T15:03:54.882Z,37.02
2022-09-22T15:08:56.531Z,37.29
2022-09-22T15:13:58.348Z,37.24
2022-09-22T15:19:00.475Z,37.51
2022-09-22T15:24:04.711Z,37.42
2022-09-22T15:29:06.547Z,37.49
2022-09-22T15:34:10.029Z,37.34
2022-09-22T15:39:21.634Z,37.55
2022-09-22T15:44:24.007Z,37.48
2022-09-22T15:49:27.613Z,37.71
2022-09-22T15:54:29.676Z,37.46
2022-09-22T15:59:33.542Z,37.58
2022-09-22T16:04:35.348Z,37.65
2022-09-22T16:09:37.203Z,37.84
2022-09-22T16:14:42.558Z,37.88
2022-09-22T16:19:44.367Z,38.06
2022-09-22T16:24:46.280Z,38.00
2022-09-22T16:29:48.748Z,38.38
2022-09-22T16:34:50.647Z,38.79
2022-09-22T16:39:52.476Z,39.22
2022-09-22T16:44:54.275Z,39.48
2022-09-22T16:49:56.090Z,39.85
2022-09-22T16:54:59.838Z,40.22
2022-09-22T17:00:02.163Z,40.36
2022-09-22T17:05:04.203Z,40.63
2022-09-22T17:10:07.058Z,40.95
2022-09-22T17:15:12.195Z,41.29
2022-09-22T17:20:14.141Z,41.45
2022-09-22T17:25:16.091Z,41.56
2022-09-22T17:30:17.949Z,42.06
2022-09-22T17:35:19.776Z,42.20
2022-09-22T17:40:21.706Z,42.51
2022-09-22T17:45:23.524Z,42.66
2022-09-22T17:50:43.582Z,43.17
2022-09-22T17:55:45.349Z,43.31
2022-09-22T18:00:47.716Z,43.17
2022-09-22T18:05:53.716Z,43.36
2022-09-22T18:10:55.899Z,43.31
2022-09-22T18:16:20.127Z,43.59
2022-09-22T18:21:22.160Z,43.85
2022-09-22T18:26:24.804Z,43.70
2022-09-22T18:31:27.300Z,43.69
2022-09-22T18:36:29.490Z,43.85
2022-09-22T18:41:32.716Z,44.42
2022-09-22T18:46:35.129Z,44.08
2022-09-22T18:51:39.568Z,44.31
2022-09-22T18:56:44.524Z,44.41
2022-09-22T19:01:49.649Z,44.66
2022-09-22T19:07:14.302Z,45.06
2022-09-22T19:12:16.262Z,45.20
2022-09-22T19:17:20.135Z,45.40
2022-09-22T19:22:23.639Z,45.11
2022-09-22T19:27:26.031Z,45.36
2022-09-22T19:32:28.364Z,45.05
2022-09-22T19:37:30.702Z,45.22
2022-09-22T19:42:35.876Z,45.46
2022-09-22T19:47:40.115Z,45.37
2022-09-22T19:52:42.295Z,45.40
2022-09-22T19:57:44.373Z,45.20
2022-09-22T20:02:46.406Z,45.22
2022-09-22T20:07:49.676Z,45.62
2022-09-22T20:12:54.238Z,45.70
2022-09-22T20:17:56.021Z,46.16
2022-09-22T20:23:02.538Z,46.52
2022-09-22T20:28:05.261Z,46.54
2022-09-22T20:33:17.568Z,46.56
2022-09-22T20:38:19.717Z,46.97
2022-09-22T20:43:21.530Z,47.25
2022-09-22T20:48:24.724Z,47.23
2022-09-22T20:53:27.336Z,46.79
2022-09-22T20:58:32.733Z,46.77
2022-09-22T21:03:35.414Z,46.65
2022-09-22T21:08:57.943Z,46.34
2022-09-22T21:14:05.707Z,46.43
2022-09-22T21:19:08.303Z,47.05
2022-09-22T21:24:11.127Z,47.14
2022-09-22T21:29:12.925Z,47.53
2022-09-22T21:34:14.821Z,47.59
2022-09-22T21:39:16.690Z,47.23
2022-09-22T21:44:18.506Z,47.28
2022-09-22T21:49:20.645Z,47.29
2022-09-22T21:54:23.234Z,47.32
2022-09-22T21:59:25.117Z,47.29
2022-09-22T22:04:27.011Z,47.36
2022-09-22T22:09:28.908Z,47.46
2022-09-22T22:14:33.545Z,47.59
2022-09-22T22:19:35.341Z,47.41
2022-09-22T22:24:40.914Z,47.40
2022-09-22T22:29:42.931Z,47.48
2022-09-22T22:34:44.715Z,47.66
2022-09-22T22:39:46.584Z,47.67
2022-09-22T22:44:48.431Z,47.76
2022-09-22T22:49:51.521Z,48.23
2022-09-22T22:54:53.736Z,48.52
2022-09-22T22:59:57.177Z,48.46
2022-09-22T23:05:01.169Z,48.94
2022-09-22T23:10:08.871Z,48.68
2022-09-22T23:15:11.047Z,49.43
2022-09-22T23:20:12.846Z,48.92
2022-09-22T23:25:14.836Z,49.13
2022-09-22T23:30:17.091Z,49.41
2022-09-22T23:35:18.977Z,49.27
2022-09-22T23:40:21.865Z,49.70
2022-09-22T23:45:23.662Z,50.02
2022-09-22T23:50:25.964Z,50.09
2022-09-22T23:55:28.123Z,49.79
